Time;durP1;ratioP1;P1;durP2;ratioP2;P2;SDS_P1;SDS_P2;PMS_P1;PMS_P2;Temp;Humidity;BMP_temperature;BMP_pressure;BME280_temperature;BME280_humidity;BME280_pressure;Samples;Min_cycle;Max_cycle;Signal;HPM_P1;HPM_P2
2021/12/17 00:00:59;;;;;;;21.88;12.07;;;3.40;99.90;;;;;;4903670;29;1077712;-78
2021/12/17 00:06:16;;;;;;;21.33;11.20;;;3.50;99.90;;;;;;5108867;23;20420;-84
2021/12/17 00:08:49;;;;;;;20.30;11.00;;;3.50;99.90;;;;;;4968664;29;20420;-82
2021/12/17 00:11:18;;;;;;;20.27;11.15;;;3.50;99.90;;;;;;4961039;29;20047;-84
2021/12/17 00:13:47;;;;;;;19.63;10.95;;;3.60;99.90;;;;;;4957532;29;20115;-83
2021/12/17 00:16:19;;;;;;;18.58;11.25;;;3.60;99.90;;;;;;4928995;29;20093;-84
2021/12/17 00:44:17;;;;;;;20.50;11.82;;;3.70;99.90;;;;;;4975902;29;20075;-86
2021/12/17 00:50:01;;;;;;;20.52;11.88;;;3.80;99.90;;;;;;4884743;29;20053;-87
2021/12/17 00:52:32;;;;;;;19.73;11.45;;;3.80;99.90;;;;;;4889478;29;20060;-86
2021/12/17 00:55:01;;;;;;;18.40;11.27;;;3.80;99.90;;;;;;4929111;29;20051;-86
2021/12/17 00:57:35;;;;;;;19.05;10.63;;;3.80;99.90;;;;;;4952427;29;20568;-87
2021/12/17 01:00:07;;;;;;;18.23;10.45;;;3.80;99.90;;;;;;4949149;29;20051;-85
2021/12/17 01:02:37;;;;;;;17.10;10.10;;;3.80;99.90;;;;;;4948610;29;20422;-87
2021/12/17 01:05:11;;;;;;;17.52;10.48;;;3.90;99.90;;;;;;4949205;29;20505;-87
2021/12/17 01:07:45;;;;;;;17.57;10.10;;;3.90;99.90;;;;;;4964567;29;20051;-88
2021/12/17 01:10:18;;;;;;;19.27;11.18;;;3.90;99.90;;;;;;4967342;29;20130;-84
2021/12/17 01:12:46;;;;;;;18.42;10.73;;;3.90;99.90;;;;;;4961450;29;20158;-83
2021/12/17 01:15:17;;;;;;;18.13;11.30;;;4.00;99.90;;;;;;4965978;29;20134;-86
2021/12/17 01:17:46;;;;;;;16.48;10.07;;;3.90;99.90;;;;;;4952847;29;20052;-85
2021/12/17 01:23:16;;;;;;;20.70;11.27;;;3.80;99.90;;;;;;4948256;29;20058;-85
2021/12/17 01:35:20;;;;;;;20.88;11.65;;;3.80;99.90;;;;;;4950913;29;20501;-84
2021/12/17 01:37:24;;;;;;;16.90;10.40;;;3.70;99.90;;;;;;4930939;29;20055;-86
2021/12/17 01:42:40;;;;;;;21.85;13.20;;;3.70;99.90;;;;;;4889973;29;20052;-85
2021/12/17 01:45:08;;;;;;;31.70;16.40;;;3.80;99.90;;;;;;4924234;29;20119;-84
2021/12/17 01:47:36;;;;;;;32.70;15.95;;;3.80;99.90;;;;;;4939547;29;20052;-83
2021/12/17 01:55:51;;;;;;;;;;;3.80;99.90;;;;;;4946992;29;20070;-86
2021/12/17 02:01:06;;;;;;;17.27;11.00;;;3.90;99.90;;;;;;4960434;29;20050;-86
2021/12/17 02:03:33;;;;;;;17.48;10.73;;;3.90;99.90;;;;;;4959541;29;20043;-86
2021/12/17 02:06:02;;;;;;;18.00;10.30;;;3.90;99.90;;;;;;4961791;29;20085;-87
2021/12/17 02:08:29;;;;;;;17.23;10.57;;;3.90;99.90;;;;;;4937377;29;20058;-85
2021/12/17 02:11:37;;;;;;;18.80;11.45;;;3.90;99.90;;;;;;4942610;29;20135;-87
2021/12/17 02:20:12;;;;;;;21.15;11.90;;;4.00;99.90;;;;;;4944880;29;20440;-84
2021/12/17 02:31:13;;;;;;;18.88;11.35;;;3.90;99.90;;;;;;4943647;29;20125;-85
2021/12/17 02:33:41;;;;;;;20.00;11.68;;;3.90;99.90;;;;;;4941025;29;20051;-85
2021/12/17 02:36:08;;;;;;;20.52;11.52;;;3.90;99.90;;;;;;4941715;29;20115;-85
2021/12/17 02:38:40;;;;;;;20.83;12.75;;;3.90;99.90;;;;;;4942091;29;20071;-87
2021/12/17 02:46:39;;;;;;;19.73;11.77;;;3.90;99.90;;;;;;4932526;29;20066;-87
2021/12/17 02:49:07;;;;;;;20.48;12.02;;;4.00;99.90;;;;;;4929450;29;20127;-86
2021/12/17 02:51:35;;;;;;;20.65;11.48;;;4.00;99.90;;;;;;4926632;29;20139;-85
2021/12/17 02:54:04;;;;;;;18.65;10.70;;;3.90;99.90;;;;;;4927601;29;20159;-86
2021/12/17 02:56:31;;;;;;;20.23;11.88;;;3.90;99.90;;;;;;4929591;29;20139;-86
2021/12/17 02:58:58;;;;;;;19.35;11.70;;;3.90;99.90;;;;;;4943782;29;20131;-85
2021/12/17 03:01:26;;;;;;;18.42;11.18;;;4.00;99.90;;;;;;4941590;29;20134;-84
2021/12/17 03:03:54;;;;;;;19.55;11.15;;;4.00;99.90;;;;;;4941958;29;20493;-86
2021/12/17 03:06:22;;;;;;;19.73;10.80;;;4.00;99.90;;;;;;4928815;29;20062;-87
2021/12/17 03:08:49;;;;;;;17.67;11.15;;;4.00;99.90;;;;;;4962554;29;20139;-87
2021/12/17 03:11:18;;;;;;;17.92;10.55;;;4.10;99.90;;;;;;4961845;29;20047;-86
2021/12/17 03:13:46;;;;;;;21.25;12.00;;;4.10;99.90;;;;;;4961249;29;20083;-85
2021/12/17 03:16:25;;;;;;;19.63;10.93;;;4.10;99.90;;;;;;4958189;29;20406;-86
2021/12/17 03:19:02;;;;;;;18.30;11.00;;;4.10;99.90;;;;;;4939860;29;20055;-86
2021/12/17 03:24:18;;;;;;;18.90;11.32;;;4.20;99.90;;;;;;4943452;29;20075;-87
2021/12/17 03:26:48;;;;;;;19.73;10.63;;;4.20;99.90;;;;;;4943918;29;20052;-87
2021/12/17 03:29:16;;;;;;;17.27;10.80;;;4.20;99.90;;;;;;4944223;29;20115;-85
2021/12/17 03:31:43;;;;;;;17.75;11.25;;;4.20;99.90;;;;;;4940510;29;20048;-86
2021/12/17 03:34:21;;;;;;;18.00;10.63;;;4.20;99.90;;;;;;4957396;29;20130;-84
2021/12/17 03:36:54;;;;;;;15.25;9.75;;;4.20;99.90;;;;;;4954039;29;20500;-87
2021/12/17 03:39:22;;;;;;;17.27;10.35;;;4.20;99.90;;;;;;4941751;29;20114;-85
2021/12/17 03:41:51;;;;;;;17.77;10.60;;;4.30;99.90;;;;;;4956324;29;20078;-85
2021/12/17 03:44:20;;;;;;;17.90;10.57;;;4.30;99.90;;;;;;4958928;29;20139;-86
2021/12/17 03:46:48;;;;;;;17.27;10.18;;;4.30;99.90;;;;;;4960234;29;20051;-86
2021/12/17 03:49:17;;;;;;;17.02;10.43;;;4.30;99.90;;;;;;4960785;29;20141;-84
2021/12/17 03:51:51;;;;;;;19.77;11.55;;;4.30;99.90;;;;;;4959878;29;20126;-85
2021/12/17 03:54:18;;;;;;;17.63;10.82;;;4.30;99.90;;;;;;4961263;29;20051;-87
2021/12/17 03:56:46;;;;;;;18.70;11.57;;;4.30;99.90;;;;;;4955238;29;20098;-86
2021/12/17 03:59:14;;;;;;;18.08;11.07;;;4.30;99.90;;;;;;4940199;29;20532;-85
2021/12/17 04:01:42;;;;;;;17.88;10.18;;;4.30;99.90;;;;;;4939956;29;20047;-84
2021/12/17 04:04:10;;;;;;;19.75;11.48;;;4.30;99.90;;;;;;4938939;29;20048;-86
2021/12/17 04:06:37;;;;;;;18.77;11.13;;;4.30;99.90;;;;;;4941598;29;20147;-86
2021/12/17 04:09:05;;;;;;;19.20;11.07;;;4.30;99.90;;;;;;4955470;29;20110;-85
2021/12/17 04:11:32;;;;;;;17.73;11.15;;;4.30;99.90;;;;;;4956248;29;20062;-85
2021/12/17 04:14:00;;;;;;;18.23;10.73;;;4.30;99.90;;;;;;4955424;29;20142;-84
2021/12/17 04:16:32;;;;;;;17.92;11.23;;;4.40;99.90;;;;;;4953040;29;20138;-85
2021/12/17 04:19:00;;;;;;;18.10;10.80;;;4.30;99.90;;;;;;4957040;29;20055;-85
2021/12/17 04:21:27;;;;;;;16.85;10.43;;;4.40;99.90;;;;;;4956069;29;20043;-86
2021/12/17 04:23:55;;;;;;;15.40;9.52;;;4.40;99.90;;;;;;4955750;29;20134;-87
2021/12/17 04:26:24;;;;;;;17.13;10.45;;;4.30;99.90;;;;;;4956293;29;20043;-87
2021/12/17 04:28:53;;;;;;;19.17;10.25;;;4.30;99.90;;;;;;4955210;29;20051;-87
2021/12/17 04:31:24;;;;;;;20.17;11.95;;;4.30;99.90;;;;;;4955406;29;20067;-87
2021/12/17 04:33:52;;;;;;;17.50;11.32;;;4.30;99.90;;;;;;4958015;29;20051;-88
2021/12/17 04:36:25;;;;;;;19.20;10.75;;;4.40;99.90;;;;;;4957168;29;20493;-86
2021/12/17 04:38:52;;;;;;;18.38;10.85;;;4.40;99.90;;;;;;4956596;29;20106;-87
2021/12/17 04:44:22;;;;;;;17.55;10.70;;;4.40;99.90;;;;;;4918501;29;20155;-82
2021/12/17 04:46:56;;;;;;;15.98;10.13;;;4.40;99.90;;;;;;4911137;29;20132;-82
2021/12/17 04:57:40;;;;;;;18.35;10.95;;;4.50;99.90;;;;;;4944538;29;20098;-81
2021/12/17 05:00:13;;;;;;;18.88;11.25;;;4.50;99.90;;;;;;4955559;29;20051;-81
2021/12/17 05:02:44;;;;;;;17.55;10.70;;;4.50;99.90;;;;;;4949550;29;20107;-82
2021/12/17 05:05:15;;;;;;;16.40;11.05;;;4.50;99.90;;;;;;4937846;29;20091;-83
2021/12/17 05:07:49;;;;;;;20.38;11.45;;;4.50;99.90;;;;;;4944605;29;20142;-83
2021/12/17 05:10:24;;;;;;;18.33;10.73;;;4.50;99.90;;;;;;4958325;28;20047;-83
2021/12/17 05:18:24;;;;;;;19.20;10.88;;;4.50;99.90;;;;;;4939584;29;20111;-85
2021/12/17 05:21:00;;;;;;;18.67;11.10;;;4.50;99.90;;;;;;4942357;29;20056;-83
2021/12/17 05:23:32;;;;;;;19.85;10.80;;;4.50;99.90;;;;;;4947571;29;20076;-83
2021/12/17 05:26:05;;;;;;;17.08;10.52;;;4.50;99.90;;;;;;4947138;29;20079;-81
2021/12/17 05:28:32;;;;;;;18.48;11.30;;;4.50;99.90;;;;;;4938985;29;20146;-83
2021/12/17 05:31:00;;;;;;;19.58;11.45;;;4.50;99.90;;;;;;4943121;29;20047;-82
2021/12/17 05:33:28;;;;;;;17.23;11.18;;;4.60;99.90;;;;;;4936262;29;20083;-83
2021/12/17 05:35:57;;;;;;;17.05;10.88;;;4.60;99.90;;;;;;4937315;29;20047;-82
2021/12/17 05:38:27;;;;;;;17.70;11.02;;;4.60;99.90;;;;;;4935855;29;20409;-83
2021/12/17 05:40:56;;;;;;;19.40;11.05;;;4.60;99.90;;;;;;4935607;29;20058;-82
2021/12/17 05:43:23;;;;;;;17.60;10.60;;;4.60;99.90;;;;;;4918776;29;20138;-83
2021/12/17 05:46:05;;;;;;;16.38;9.95;;;4.60;99.90;;;;;;4936301;29;20055;-83
2021/12/17 05:48:32;;;;;;;17.85;10.73;;;4.60;99.90;;;;;;4936522;29;20059;-83
2021/12/17 05:51:04;;;;;;;18.25;10.73;;;4.60;99.90;;;;;;4936584;29;20059;-83
2021/12/17 05:53:31;;;;;;;17.60;10.55;;;4.60;99.90;;;;;;4936069;29;20051;-83
2021/12/17 05:55:58;;;;;;;18.45;11.20;;;4.60;99.90;;;;;;4935318;29;20052;-82
2021/12/17 05:58:27;;;;;;;18.38;10.80;;;4.60;99.90;;;;;;4935895;29;20490;-82
2021/12/17 06:00:56;;;;;;;19.55;10.98;;;4.60;99.90;;;;;;4936115;29;20047;-83
2021/12/17 06:03:24;;;;;;;18.48;11.02;;;4.60;99.90;;;;;;4936867;29;20138;-82
2021/12/17 06:05:51;;;;;;;19.80;11.05;;;4.60;99.90;;;;;;4937563;29;20063;-83
2021/12/17 06:08:20;;;;;;;19.23;11.00;;;4.60;99.90;;;;;;4940556;29;20135;-83
2021/12/17 06:10:47;;;;;;;18.88;10.88;;;4.60;99.90;;;;;;4941906;29;20079;-83
2021/12/17 06:13:14;;;;;;;20.33;11.18;;;4.60;99.90;;;;;;4937097;29;20062;-83
2021/12/17 06:15:41;;;;;;;17.90;10.85;;;4.60;99.90;;;;;;4937597;29;20059;-82
2021/12/17 06:18:08;;;;;;;20.20;11.93;;;4.50;99.90;;;;;;4938259;29;20052;-81
2021/12/17 06:20:35;;;;;;;18.60;10.98;;;4.50;99.90;;;;;;4937221;29;20055;-83
2021/12/17 06:23:02;;;;;;;18.52;10.73;;;4.40;99.90;;;;;;4939250;29;20138;-82
2021/12/17 06:25:31;;;;;;;16.33;11.18;;;4.40;99.90;;;;;;4939872;29;20478;-82
2021/12/17 06:27:58;;;;;;;17.98;11.05;;;4.30;99.90;;;;;;4939133;29;20054;-82
2021/12/17 06:30:25;;;;;;;18.25;10.68;;;4.40;99.90;;;;;;4940783;29;20048;-82
2021/12/17 06:32:52;;;;;;;17.83;10.82;;;4.30;99.90;;;;;;4941845;29;20048;-83
2021/12/17 06:35:20;;;;;;;21.42;12.25;;;4.30;99.90;;;;;;4941759;29;20139;-83
2021/12/17 06:37:47;;;;;;;19.42;11.50;;;4.30;99.90;;;;;;4942260;29;20065;-82
2021/12/17 06:40:14;;;;;;;19.88;11.68;;;4.20;99.90;;;;;;4942334;29;20138;-83
2021/12/17 06:42:44;;;;;;;17.13;11.10;;;4.20;99.90;;;;;;4940650;29;20052;-82
2021/12/17 06:45:20;;;;;;;16.58;10.88;;;4.20;99.90;;;;;;4941600;29;20067;-82
2021/12/17 06:47:54;;;;;;;17.92;11.55;;;4.20;99.90;;;;;;4940894;29;20074;-83
2021/12/17 07:05:57;;;;;;;19.50;11.45;;;4.00;99.90;;;;;;4945016;29;20074;-82
2021/12/17 07:07:40;;;;;;;19.80;11.68;;;3.90;99.90;;;;;;4911931;29;20056;-82
2021/12/17 07:35:39;;;;;;;26.17;12.18;;;3.70;99.90;;;;;;5112895;27;20040;-82
2021/12/17 07:40:53;;;;;;;19.80;11.73;;;3.60;99.90;;;;;;5128457;28;20067;-82
2021/12/17 07:43:36;;;;;;;20.73;11.60;;;3.60;99.90;;;;;;5124974;28;20071;-79
2021/12/17 07:46:05;;;;;;;20.38;11.80;;;3.50;99.90;;;;;;5123830;28;20047;-84
2021/12/17 07:48:33;;;;;;;18.17;10.75;;;3.50;99.90;;;;;;5126786;28;20542;-82
2021/12/17 07:51:03;;;;;;;17.20;11.02;;;3.50;99.90;;;;;;5123569;28;20058;-83
2021/12/17 07:53:30;;;;;;;21.30;11.38;;;3.50;99.90;;;;;;5123201;28;20048;-83
2021/12/17 07:56:00;;;;;;;25.38;11.30;;;3.50;99.90;;;;;;5125342;28;20131;-82
2021/12/17 07:58:28;;;;;;;27.42;11.90;;;3.50;99.90;;;;;;5122716;28;20658;-82
2021/12/17 08:00:55;;;;;;;19.05;11.10;;;3.50;99.90;;;;;;5120902;28;20044;-82
2021/12/17 08:03:23;;;;;;;20.65;11.52;;;3.50;99.90;;;;;;5118851;28;20107;-82
2021/12/17 08:05:51;;;;;;;20.52;11.63;;;3.50;99.90;;;;;;5123429;28;20584;-82
2021/12/17 08:08:19;;;;;;;19.20;11.25;;;3.60;99.90;;;;;;5122120;28;20135;-82
2021/12/17 08:10:48;;;;;;;19.65;11.10;;;3.60;99.90;;;;;;5124387;28;20087;-82
2021/12/17 08:13:21;;;;;;;17.20;10.07;;;3.50;99.90;;;;;;5121629;28;20055;-81
2021/12/17 08:16:03;;;;;;;16.85;10.10;;;3.50;99.90;;;;;;5116122;28;20051;-82
2021/12/17 08:18:57;;;;;;;15.98;9.98;;;3.50;99.90;;;;;;5119166;28;20070;-81
2021/12/17 08:24:45;;;;;;;24.17;10.85;;;3.60;99.90;;;;;;5121294;28;20822;-82
2021/12/17 08:27:26;;;;;;;22.35;11.57;;;3.50;99.90;;;;;;5121164;28;20044;-82
2021/12/17 08:30:18;;;;;;;19.02;10.57;;;3.50;99.90;;;;;;5121482;28;20058;-82
2021/12/17 08:32:46;;;;;;;21.15;10.80;;;3.60;99.90;;;;;;5121076;28;20052;-82
2021/12/17 08:35:13;;;;;;;19.27;11.38;;;3.50;99.90;;;;;;5108213;28;20083;-81
2021/12/17 08:37:41;;;;;;;20.25;12.07;;;3.60;99.90;;;;;;5106115;28;20103;-83
2021/12/17 08:40:09;;;;;;;19.42;11.85;;;3.60;99.90;;;;;;5105285;28;20089;-83
2021/12/17 08:42:38;;;;;;;19.35;11.07;;;3.70;99.90;;;;;;5106104;28;20558;-83
2021/12/17 08:45:09;;;;;;;19.17;11.57;;;3.70;99.90;;;;;;5106220;28;20044;-82
2021/12/17 08:47:37;;;;;;;20.02;11.35;;;3.80;99.90;;;;;;5107395;28;20055;-82
2021/12/17 08:50:07;;;;;;;35.42;12.23;;;3.80;99.90;;;;;;5107591;28;20050;-82
2021/12/17 08:52:35;;;;;;;28.63;13.75;;;3.90;99.90;;;;;;5106431;28;20052;-83
2021/12/17 08:55:03;;;;;;;21.23;11.88;;;3.90;99.90;;;;;;5106505;28;20055;-83
2021/12/17 08:57:30;;;;;;;33.30;13.57;;;4.00;99.90;;;;;;5104418;28;20079;-83
2021/12/17 09:00:04;;;;;;;26.27;12.88;;;4.00;99.90;;;;;;5104402;28;20469;-82
2021/12/17 09:02:34;;;;;;;24.33;12.32;;;4.10;99.90;;;;;;5104223;28;20111;-84
2021/12/17 09:05:01;;;;;;;21.55;11.43;;;4.10;99.90;;;;;;5103608;28;20062;-81
2021/12/17 09:07:28;;;;;;;16.40;10.63;;;4.20;99.90;;;;;;5103399;28;20130;-83
2021/12/17 09:09:55;;;;;;;19.52;11.07;;;4.20;99.90;;;;;;5105290;28;20134;-82
2021/12/17 09:12:22;;;;;;;20.05;11.98;;;4.30;99.90;;;;;;5102680;28;20135;-82
2021/12/17 09:14:50;;;;;;;19.75;12.30;;;4.30;99.90;;;;;;5099359;28;20044;-83
2021/12/17 09:17:19;;;;;;;19.17;11.57;;;4.30;99.90;;;;;;5100441;28;20068;-83
2021/12/17 09:19:47;;;;;;;15.95;10.00;;;4.30;99.90;;;;;;5105783;28;20127;-81
2021/12/17 09:22:14;;;;;;;17.75;10.32;;;4.30;99.90;;;;;;5105152;28;20116;-84
2021/12/17 09:24:41;;;;;;;17.17;10.20;;;4.30;99.90;;;;;;5105962;28;20143;-82
2021/12/17 09:27:08;;;;;;;16.20;9.57;;;4.40;99.90;;;;;;5105534;28;20136;-83
2021/12/17 09:29:36;;;;;;;17.70;10.82;;;4.40;99.90;;;;;;5101877;28;20083;-83
2021/12/17 09:32:03;;;;;;;16.75;10.32;;;4.50;99.90;;;;;;5096702;28;20044;-82
2021/12/17 09:34:31;;;;;;;18.55;10.90;;;4.50;99.90;;;;;;5103399;28;20131;-85
2021/12/17 09:36:59;;;;;;;18.33;10.40;;;4.60;99.90;;;;;;5105292;28;20119;-82
2021/12/17 09:39:26;;;;;;;17.35;10.57;;;4.60;99.90;;;;;;5106079;28;20116;-82
2021/12/17 09:41:53;;;;;;;15.90;9.75;;;4.60;99.90;;;;;;5103359;28;20116;-83
2021/12/17 09:44:21;;;;;;;17.42;10.18;;;4.70;99.90;;;;;;5101151;28;20052;-81
2021/12/17 09:46:49;;;;;;;16.65;10.07;;;4.80;99.90;;;;;;5094172;28;20074;-82
2021/12/17 09:49:18;;;;;;;17.33;10.50;;;4.90;99.90;;;;;;5098151;28;20044;-82
2021/12/17 09:51:46;;;;;;;18.75;10.15;;;4.90;99.90;;;;;;5097635;28;20123;-81
2021/12/17 09:54:16;;;;;;;19.38;10.80;;;5.00;99.90;;;;;;5098832;28;20052;-82
2021/12/17 09:56:43;;;;;;;17.05;10.80;;;5.10;99.90;;;;;;5098816;28;20457;-82
2021/12/17 09:59:12;;;;;;;18.58;11.43;;;5.10;99.90;;;;;;5097793;28;20062;-83
2021/12/17 10:01:39;;;;;;;21.60;11.70;;;5.20;99.90;;;;;;5098578;28;20412;-82
2021/12/17 10:04:18;;;;;;;19.92;11.85;;;5.30;99.90;;;;;;5099070;28;20052;-82
2021/12/17 10:06:47;;;;;;;19.88;11.10;;;5.30;99.90;;;;;;5099126;28;20051;-81
2021/12/17 10:09:16;;;;;;;16.13;10.32;;;5.30;99.90;;;;;;5100097;28;20131;-82
2021/12/17 10:12:03;;;;;;;15.45;9.80;;;5.30;99.90;;;;;;5098246;28;20071;-82
2021/12/17 10:14:30;;;;;;;16.95;10.65;;;5.40;99.90;;;;;;5098758;28;20051;-80
2021/12/17 10:17:10;;;;;;;15.15;10.13;;;5.40;99.90;;;;;;5096799;28;20098;-83
2021/12/17 10:19:48;;;;;;;15.13;9.30;;;5.50;99.90;;;;;;5094709;28;20044;-82
2021/12/17 10:22:18;;;;;;;14.52;9.30;;;5.50;99.90;;;;;;5100245;28;20054;-84
2021/12/17 10:25:00;;;;;;;12.35;8.15;;;5.60;99.90;;;;;;5105941;28;20107;-88
2021/12/17 10:27:30;;;;;;;15.02;9.43;;;5.60;99.90;;;;;;5099193;28;20044;-86
2021/12/17 10:29:58;;;;;;;14.18;8.95;;;5.70;99.90;;;;;;5095974;28;20071;-87
2021/12/17 10:32:28;;;;;;;15.23;9.73;;;5.80;99.90;;;;;;5105601;28;20127;-87
2021/12/17 10:35:09;;;;;;;15.40;9.23;;;5.90;99.90;;;;;;5099568;28;20059;-86
2021/12/17 10:37:40;;;;;;;15.15;8.82;;;6.00;99.90;;;;;;5083931;28;20087;-86
2021/12/17 10:40:30;;;;;;;13.45;8.27;;;6.00;99.90;;;;;;5090153;28;20098;-87
2021/12/17 10:43:03;;;;;;;12.70;8.18;;;6.00;99.90;;;;;;5092954;28;20083;-86
2021/12/17 10:45:37;;;;;;;12.65;7.80;;;6.10;99.90;;;;;;5080471;28;20064;-85
2021/12/17 10:51:20;;;;;;;13.23;7.93;;;6.20;99.90;;;;;;5091097;28;20037;-85
2021/12/17 10:53:54;;;;;;;11.25;6.95;;;6.20;99.90;;;;;;5092859;28;20050;-86
2021/12/17 10:56:24;;;;;;;11.88;7.10;;;6.20;99.90;;;;;;5081900;28;20097;-88
2021/12/17 10:58:58;;;;;;;12.02;7.55;;;6.20;99.90;;;;;;5104459;28;20072;-85
2021/12/17 11:01:43;;;;;;;12.10;8.13;;;6.30;99.90;;;;;;5108645;28;20060;-87
2021/12/17 11:04:18;;;;;;;13.80;8.23;;;6.30;99.90;;;;;;5085523;28;20498;-86
2021/12/17 11:06:50;;;;;;;15.63;8.73;;;6.30;99.90;;;;;;5100018;28;20043;-86
2021/12/17 11:09:42;;;;;;;11.85;7.40;;;6.40;99.90;;;;;;5097337;28;20097;-85
2021/12/17 11:12:32;;;;;;;11.10;7.15;;;6.40;99.90;;;;;;5096481;28;20501;-83
2021/12/17 11:15:12;;;;;;;10.23;6.22;;;6.50;99.90;;;;;;5098923;28;20091;-85
2021/12/17 11:17:41;;;;;;;10.65;6.15;;;6.60;99.90;;;;;;5096109;28;20084;-80
2021/12/17 11:20:11;;;;;;;10.88;6.75;;;6.70;99.90;;;;;;5096334;28;20072;-80
2021/12/17 11:22:43;;;;;;;10.70;6.60;;;6.70;99.90;;;;;;5098699;28;20078;-83
2021/12/17 11:25:11;;;;;;;10.38;6.63;;;6.70;99.90;;;;;;5095402;28;20048;-82
2021/12/17 11:27:40;;;;;;;10.63;6.55;;;6.70;99.90;;;;;;5093815;28;20054;-82
2021/12/17 11:30:11;;;;;;;10.73;6.43;;;6.80;99.90;;;;;;5094032;28;20132;-82
2021/12/17 11:32:39;;;;;;;11.88;6.85;;;6.80;99.90;;;;;;5091458;28;20135;-80
2021/12/17 11:35:08;;;;;;;10.77;6.70;;;6.80;99.90;;;;;;5092506;28;20131;-81
2021/12/17 11:37:37;;;;;;;10.90;6.57;;;6.90;99.90;;;;;;5091350;28;20110;-81
2021/12/17 11:40:13;;;;;;;10.00;6.15;;;7.00;99.90;;;;;;5091491;28;20130;-79
2021/12/17 11:43:01;;;;;;;8.48;5.65;;;7.00;99.90;;;;;;5091613;28;20048;-82
2021/12/17 11:45:30;;;;;;;10.13;5.93;;;7.10;99.90;;;;;;5091397;28;20093;-81
2021/12/17 11:48:18;;;;;;;9.23;5.90;;;7.20;99.90;;;;;;5091506;28;20469;-81
2021/12/17 11:50:47;;;;;;;10.07;5.80;;;7.40;99.90;;;;;;5091477;28;20481;-79
2021/12/17 11:53:24;;;;;;;9.93;5.90;;;7.40;99.90;;;;;;5092041;28;20048;-79
2021/12/17 11:55:58;;;;;;;9.52;5.22;;;7.60;99.90;;;;;;5091894;28;20043;-83
2021/12/17 11:58:51;;;;;;;9.65;5.55;;;7.70;99.90;;;;;;5091989;28;20135;-82
2021/12/17 12:01:52;;;;;;;8.93;5.63;;;7.80;99.90;;;;;;5093001;28;20386;-83
2021/12/17 12:04:59;;;;;;;9.52;5.13;;;7.90;99.90;;;;;;5091818;28;20051;-80
2021/12/17 12:07:36;;;;;;;10.20;5.43;;;8.00;99.90;;;;;;5094324;28;20127;-82
2021/12/17 12:10:24;;;;;;;8.98;5.00;;;8.10;99.90;;;;;;5095315;28;20052;-81
2021/12/17 12:13:01;;;;;;;8.27;5.18;;;8.30;99.90;;;;;;5096918;28;20086;-82
2021/12/17 12:15:40;;;;;;;6.63;4.57;;;8.40;99.90;;;;;;5096550;28;20054;-81
2021/12/17 12:18:39;;;;;;;8.02;4.80;;;8.60;99.90;;;;;;5096798;28;20059;-80
2021/12/17 12:21:06;;;;;;;8.10;4.55;;;8.70;99.90;;;;;;5095638;28;20052;-81
2021/12/17 12:23:53;;;;;;;8.43;4.63;;;8.90;99.80;;;;;;5095228;28;20064;-80
2021/12/17 12:26:35;;;;;;;8.40;4.82;;;9.00;99.20;;;;;;5098434;28;20087;-81
2021/12/17 12:29:15;;;;;;;7.65;5.10;;;9.20;99.00;;;;;;5100108;28;20493;-81
2021/12/17 12:32:19;;;;;;;8.68;4.68;;;9.40;98.20;;;;;;5095580;28;20087;-80
2021/12/17 12:34:47;;;;;;;8.57;4.93;;;9.50;98.00;;;;;;5096014;28;20105;-79
2021/12/17 12:37:31;;;;;;;8.38;4.93;;;9.70;97.60;;;;;;5095678;28;20082;-80
2021/12/17 12:40:16;;;;;;;8.63;5.13;;;9.90;97.30;;;;;;5095395;28;20151;-80
2021/12/17 12:42:55;;;;;;;8.15;4.57;;;10.10;96.50;;;;;;5094571;28;20048;-80
2021/12/17 12:45:23;;;;;;;6.93;4.53;;;10.30;96.20;;;;;;5096504;28;20080;-80
2021/12/17 12:48:00;;;;;;;7.78;4.47;;;10.50;95.60;;;;;;5097242;28;20113;-80
2021/12/17 12:50:32;;;;;;;7.53;4.82;;;10.80;95.10;;;;;;5097993;28;20075;-80
2021/12/17 12:53:05;;;;;;;7.45;4.75;;;11.20;94.60;;;;;;5094657;28;20109;-80
2021/12/17 12:55:36;;;;;;;7.07;4.25;;;11.80;94.20;;;;;;5094492;28;20056;-80
2021/12/17 12:58:10;;;;;;;7.10;4.35;;;12.70;92.90;;;;;;5094447;28;20048;-80
2021/12/17 13:00:49;;;;;;;5.70;3.53;;;15.50;82.30;;;;;;5095153;28;20131;-80
2021/12/17 13:03:24;;;;;;;5.32;3.33;;;16.20;80.20;;;;;;5094980;28;20051;-79
2021/12/17 13:05:51;;;;;;;;;;;18.60;68.10;;;;;;5095302;28;20135;-81
2021/12/17 13:08:21;;;;;;;5.78;3.30;;;20.80;58.50;;;;;;5095374;28;20371;-79
2021/12/17 13:10:51;;;;;;;7.07;3.50;;;22.80;52.50;;;;;;5094923;28;20404;-79
2021/12/17 13:13:28;;;;;;;5.32;3.45;;;24.50;47.80;;;;;;5094644;28;20135;-81
2021/12/17 13:16:09;;;;;;;5.90;3.47;;;25.80;44.50;;;;;;5094327;28;20044;-80
2021/12/17 13:21:41;;;;;;;5.00;3.00;;;27.60;40.00;;;;;;5094479;28;20055;-79
2021/12/17 13:24:13;;;;;;;6.70;3.50;;;28.30;38.70;;;;;;5094172;28;20063;-79
2021/12/17 13:26:45;;;;;;;5.53;3.38;;;28.80;37.70;;;;;;5094020;28;20050;-79
2021/12/17 13:29:16;;;;;;;4.60;3.10;;;29.10;36.90;;;;;;5093939;28;20055;-80
2021/12/17 13:31:55;;;;;;;4.88;3.20;;;29.40;36.40;;;;;;5087769;28;20497;-79
2021/12/17 13:34:29;;;;;;;4.05;2.80;;;29.40;35.80;;;;;;5073686;28;20056;-79
2021/12/17 13:37:09;;;;;;;4.38;2.70;;;29.30;36.00;;;;;;5074122;28;20091;-79
2021/12/17 13:39:41;;;;;;;4.68;2.97;;;29.50;35.70;;;;;;5074031;28;20091;-78
2021/12/17 13:42:13;;;;;;;5.15;2.70;;;30.00;35.20;;;;;;5073936;28;20127;-79
2021/12/17 13:44:44;;;;;;;3.88;2.60;;;30.60;34.70;;;;;;5080422;28;20131;-79
2021/12/17 13:47:25;;;;;;;4.00;2.65;;;31.20;34.10;;;;;;5101435;28;20071;-80
2021/12/17 13:50:05;;;;;;;4.35;2.80;;;32.10;33.50;;;;;;5105723;28;20592;-79
2021/12/17 13:52:34;;;;;;;4.20;2.70;;;32.90;39.10;;;;;;5094981;28;20131;-78
2021/12/17 13:55:06;;;;;;;3.97;2.30;;;33.80;41.70;;;;;;5093735;28;20054;-80
2021/12/17 13:57:34;;;;;;;4.55;2.80;;;34.90;30.50;;;;;;5094204;28;20079;-79
2021/12/17 14:00:21;;;;;;;3.97;2.45;;;35.30;30.10;;;;;;5094080;28;20381;-77
2021/12/17 14:02:51;;;;;;;4.20;2.60;;;35.30;30.80;;;;;;5095034;28;20076;-79
2021/12/17 14:05:26;;;;;;;4.38;2.72;;;35.40;30.40;;;;;;5093979;28;20472;-80
2021/12/17 14:07:55;;;;;;;4.50;2.60;;;35.30;30.30;;;;;;5094951;28;20447;-80
2021/12/17 14:10:25;;;;;;;4.80;2.72;;;35.20;30.30;;;;;;5074004;28;20132;-81
2021/12/17 14:12:52;;;;;;;4.07;2.67;;;34.90;30.40;;;;;;5089549;28;20044;-79
2021/12/17 14:15:23;;;;;;;4.40;2.55;;;34.70;30.40;;;;;;5075166;28;20048;-77
2021/12/17 14:17:56;;;;;;;4.93;2.85;;;34.50;30.60;;;;;;5072206;28;20528;-77
2021/12/17 14:20:27;;;;;;;5.03;3.00;;;33.80;31.70;;;;;;5088246;28;20399;-77
2021/12/17 14:22:59;;;;;;;4.05;2.75;;;32.70;37.00;;;;;;5088453;28;20052;-80
2021/12/17 14:25:34;;;;;;;5.75;3.40;;;31.30;31.80;;;;;;5089872;28;20048;-79
2021/12/17 14:28:08;;;;;;;5.90;3.30;;;29.50;33.00;;;;;;5094752;28;20127;-79
2021/12/17 14:30:36;;;;;;;;;;;27.20;34.70;;;;;;5073968;28;20577;-81
2021/12/17 14:33:12;;;;;;;6.25;3.50;;;25.10;36.80;;;;;;5070620;28;20342;-78
2021/12/17 14:35:52;;;;;;;5.97;3.67;;;23.20;39.20;;;;;;5069513;28;20052;-81
2021/12/17 14:38:21;;;;;;;5.10;3.50;;;21.50;41.70;;;;;;5071180;28;20053;-82
2021/12/17 14:41:00;;;;;;;5.70;3.70;;;20.10;44.10;;;;;;5088135;28;20134;-79
2021/12/17 14:43:35;;;;;;;6.22;3.83;;;18.90;46.40;;;;;;5069716;28;20048;-80
2021/12/17 14:46:15;;;;;;;6.47;3.88;;;17.90;48.40;;;;;;5069518;28;20079;-79
2021/12/17 14:48:55;;;;;;;6.07;3.90;;;17.00;50.10;;;;;;5081011;28;20707;-82
2021/12/17 15:00:23;;;;;;;5.78;3.42;;;16.40;55.10;;;;;;5018400;28;20270;-82
2021/12/17 15:02:55;;;;;;;5.45;3.08;;;17.20;53.50;;;;;;5092607;28;20488;-82
2021/12/17 15:05:26;;;;;;;6.20;3.88;;;17.70;52.10;;;;;;5093353;28;20139;-84
2021/12/17 15:07:57;;;;;;;6.60;3.50;;;18.00;51.20;;;;;;5090712;28;20121;-82
2021/12/17 15:10:26;;;;;;;7.72;4.10;;;17.70;51.10;;;;;;5088589;28;20048;-82
2021/12/17 15:12:57;;;;;;;5.72;3.78;;;17.10;51.80;;;;;;5088877;28;20131;-82
2021/12/17 15:15:27;;;;;;;6.05;3.85;;;16.30;53.20;;;;;;5089485;28;20051;-84
2021/12/17 15:17:57;;;;;;;6.50;4.10;;;15.50;54.80;;;;;;5089049;28;20083;-82
2021/12/17 15:20:28;;;;;;;7.40;4.57;;;14.80;56.50;;;;;;5089284;28;20134;-84
2021/12/17 15:22:57;;;;;;;7.43;4.30;;;14.20;58.20;;;;;;5089425;28;20095;-84
2021/12/17 15:25:25;;;;;;;6.70;4.57;;;13.60;59.90;;;;;;5089593;28;20040;-84
2021/12/17 15:27:52;;;;;;;7.20;4.30;;;13.00;61.40;;;;;;5090585;28;20381;-83
2021/12/17 15:30:24;;;;;;;8.43;4.50;;;12.50;63.00;;;;;;5089947;28;20071;-83
2021/12/17 15:32:51;;;;;;;6.90;4.07;;;12.10;64.60;;;;;;5089745;28;20081;-81
2021/12/17 15:35:20;;;;;;;7.22;4.28;;;11.80;66.10;;;;;;5088083;28;20054;-83
2021/12/17 15:37:49;;;;;;;6.75;4.22;;;11.50;67.70;;;;;;5089076;28;20059;-81
2021/12/17 15:40:18;;;;;;;7.60;4.63;;;11.20;70.50;;;;;;5088961;28;20511;-82
2021/12/17 15:42:46;;;;;;;6.88;4.05;;;10.90;72.70;;;;;;5088475;28;20048;-80